Change the Weather History Date:

Tuesday, August 6, 2013

  Actual Average Record
Temperature  
Mean Temperature 88 °F -  
Max Temperature 100 °F 93 °F 105 °F (1924)
Min Temperature 76 °F 70 °F 62 °F (1931)
Cooling Degree Days 23    
Growing Degree Days 38 (Base 50)    
Moisture  
Dew Point 63 °F    
Average Humidity 45    
Maximum Humidity 76    
Minimum Humidity 26    
Precipitation  
Precipitation 0.00 in - - ()
Sea Level Pressure  
Sea Level Pressure 29.93 in    
Wind  
Wind Speed 7 mph (South)    
Max Wind Speed 13 mph    
Max Gust Speed 20 mph    
Visibility 10 miles    
Events      
Averages and records for this station are not official NWS values.
T = Trace of Precipitation, MM = Missing Value Source: NWS Daily Summary

Daily Weather History Graph

Daily Weather History Graph

Search for Another Location

Airport or City:

Trip Planner

Search our weather history database for the weather conditions in past years. The results will help you decide how hot, cold, wet, or windy it might be!

Date:

Astronomy

Aug. 06, 2013 Rise Set
Actual Time 6:51 AM CDT 8:25 PM CDT
Civil Twilight 6:24 AM CDT 8:51 PM CDT
Nautical Twilight 5:53 AM CDT 9:23 PM CDT
Astronomical Twilight 5:19 AM CDT 9:56 PM CDT
Moon 6:40 AM CDT (8/6) 8:06 PM CDT (8/6)
Length of Visible Light 14h 27m
Length of Day
13h 34m
Waning Crescent, 0% of the Moon is Illuminated
Aug 6
Waning Crescent
Aug 6
New
Aug 14
First Quarter
Aug 20
Full
Aug 28
Last Quarter

Hourly Weather History & Observations

Time (CDT) Temp. Heat Index Dew Point Humidity Pressure Visibility Wind Dir Wind Speed Gust Speed Precip Events Conditions
12:15 AM 82.4 °F 82.9 °F 61.0 °F 48% 29.94 in 10.0 mi SSE 3.5 mph - N/A   Clear
12:35 AM 82.4 °F 83.0 °F 61.3 °F 49% 29.94 in 10.0 mi SSE 4.6 mph - N/A   Clear
12:55 AM 81.9 °F 82.6 °F 61.7 °F 50% 29.95 in 10.0 mi SSE 6.9 mph - N/A   Clear
1:15 AM 82.2 °F 83.0 °F 61.9 °F 50% 29.95 in 10.0 mi South 5.8 mph - N/A   Clear
1:35 AM 81.5 °F 82.7 °F 62.6 °F 53% 29.96 in 10.0 mi South 5.8 mph - N/A   Clear
1:55 AM 80.6 °F 81.8 °F 62.8 °F 54% 29.95 in 10.0 mi South 5.8 mph - N/A   Clear
2:15 AM 80.4 °F 81.7 °F 63.0 °F 55% 29.95 in 10.0 mi South 6.9 mph - N/A   Clear
2:35 AM 80.2 °F 81.8 °F 63.7 °F 57% 29.96 in 10.0 mi South 5.8 mph - N/A   Scattered Clouds
2:55 AM 79.7 °F - 64.2 °F 59% 29.96 in 10.0 mi South 4.6 mph - N/A   Clear
3:15 AM 78.8 °F - 64.6 °F 62% 29.95 in 10.0 mi South 4.6 mph - N/A   Clear
3:35 AM 79.0 °F - 65.3 °F 63% 29.95 in 10.0 mi South 6.9 mph - N/A   Clear
3:55 AM 79.2 °F - 65.7 °F 63% 29.95 in 10.0 mi South 5.8 mph - N/A   Clear
4:15 AM 79.2 °F - 66.2 °F 64% 29.95 in 10.0 mi South 6.9 mph - N/A   Scattered Clouds
4:35 AM 78.8 °F - 66.6 °F 66% 29.95 in 10.0 mi South 5.8 mph - N/A   Clear
4:55 AM 78.4 °F - 67.1 °F 68% 29.95 in 10.0 mi South 5.8 mph - N/A   Clear
5:15 AM 78.3 °F - 67.3 °F 69% 29.94 in 10.0 mi South 6.9 mph - N/A   Clear
5:35 AM 78.1 °F - 67.5 °F 70% 29.94 in 10.0 mi South 6.9 mph - N/A   Clear
5:55 AM 77.5 °F - 68.0 °F 72% 29.94 in 10.0 mi South 6.9 mph - N/A   Clear
6:15 AM 77.2 °F - 68.2 °F 74% 29.94 in 10.0 mi South 6.9 mph - N/A   Clear
6:35 AM 77.0 °F - 68.2 °F 74% 29.94 in 10.0 mi South 4.6 mph - N/A   Clear
6:55 AM 76.8 °F - 68.4 °F 75% 29.95 in 10.0 mi South 4.6 mph - N/A   Clear
7:15 AM 76.3 °F - 68.4 °F 76% 29.96 in 10.0 mi South 4.6 mph - N/A   Clear
7:35 AM 76.8 °F - 68.5 °F 75% 29.96 in 10.0 mi South 4.6 mph - N/A   Clear
7:55 AM 77.9 °F - 68.5 °F 73% 29.96 in 10.0 mi South 4.6 mph - N/A   Clear
8:15 AM 79.3 °F - 68.5 °F 69% 29.97 in 10.0 mi South 5.8 mph - N/A   Clear
8:35 AM 80.8 °F 83.5 °F 68.0 °F 65% 29.97 in 10.0 mi South 5.8 mph - N/A   Clear
8:55 AM 81.9 °F 84.4 °F 67.1 °F 61% 29.97 in 10.0 mi South 6.9 mph - N/A   Clear
9:15 AM 83.5 °F 85.7 °F 66.4 °F 56% 29.97 in 10.0 mi SSW 6.9 mph - N/A   Clear
9:35 AM 84.7 °F 86.6 °F 65.5 °F 52% 29.97 in 10.0 mi SW 6.9 mph - N/A   Clear
9:55 AM 86.2 °F 87.6 °F 64.6 °F 48% 29.97 in 10.0 mi SSW 8.1 mph - N/A   Clear
10:15 AM 87.4 °F 89.1 °F 64.8 °F 47% 29.97 in 10.0 mi SSW 5.8 mph - N/A   Clear
10:35 AM 89.1 °F 90.6 °F 64.4 °F 44% 29.97 in 10.0 mi SW 9.2 mph - N/A   Clear
10:55 AM 90.0 °F 90.6 °F 62.6 °F 40% 29.96 in 10.0 mi SSW 9.2 mph 17.3 mph N/A   Clear
11:15 AM 91.4 °F 92.1 °F 62.8 °F 38% 29.97 in 10.0 mi SSW 9.2 mph 16.1 mph N/A   Clear
11:35 AM 92.1 °F 92.4 °F 61.7 °F 36% 29.97 in 10.0 mi SSW 11.5 mph 16.1 mph N/A   Clear
11:55 AM 93.4 °F 93.9 °F 62.1 °F 35% 29.97 in 10.0 mi SSW 9.2 mph 17.3 mph N/A   Clear
12:15 PM 94.6 °F 95.1 °F 61.3 °F 33% 29.97 in 10.0 mi South 10.4 mph - N/A   Clear
12:35 PM 94.5 °F 95.2 °F 62.4 °F 34% 29.97 in 10.0 mi South 10.4 mph - N/A   Clear
12:55 PM 95.2 °F 95.5 °F 61.2 °F 32% 29.96 in 10.0 mi South 8.1 mph - N/A   Clear
1:15 PM 96.8 °F 97.1 °F 60.8 °F 30% 29.96 in 10.0 mi South 11.5 mph - N/A   Clear
1:35 PM 96.8 °F 96.7 °F 60.1 °F 29% 29.95 in 10.0 mi SSW 10.4 mph - N/A   Clear
1:55 PM 97.7 °F 98.0 °F 60.1 °F 29% 29.94 in 10.0 mi South 8.1 mph 19.6 mph N/A   Clear
2:15 PM 97.9 °F 97.8 °F 59.7 °F 28% 29.93 in 10.0 mi South 6.9 mph 17.3 mph N/A   Clear
2:35 PM 99.0 °F 99.0 °F 59.7 °F 27% 29.92 in 10.0 mi SSW 10.4 mph - N/A   Clear
2:55 PM 99.1 °F 98.8 °F 58.8 °F 26% 29.92 in 10.0 mi South 10.4 mph 18.4 mph N/A   Clear
3:15 PM 99.5 °F 99.9 °F 59.7 °F 27% 29.91 in 10.0 mi South 8.1 mph - N/A   Clear
3:35 PM 99.7 °F 100.1 °F 59.7 °F 27% 29.90 in 10.0 mi South 5.8 mph - N/A   Clear
3:55 PM 99.5 °F 99.4 °F 59.4 °F 26% 29.89 in 10.0 mi South 10.4 mph - N/A   Clear
4:15 PM 99.7 °F 99.6 °F 58.8 °F 26% 29.89 in 10.0 mi South 11.5 mph 17.3 mph N/A   Clear
4:35 PM 100.4 °F 100.7 °F 59.2 °F 26% 29.88 in 10.0 mi SSW 6.9 mph 16.1 mph N/A   Clear
4:55 PM 99.7 °F 99.6 °F 59.0 °F 26% 29.88 in 10.0 mi South 10.4 mph - N/A   Clear
5:15 PM 99.9 °F 99.9 °F 59.2 °F 26% 29.87 in 10.0 mi South 12.7 mph 17.3 mph N/A   Clear
5:55 PM 99.1 °F 99.3 °F 59.9 °F 27% 29.87 in 10.0 mi South 8.1 mph - N/A   Clear
6:15 PM 98.8 °F 99.2 °F 60.6 °F 28% 29.86 in 10.0 mi South 9.2 mph 17.3 mph N/A   Clear
6:35 PM 98.6 °F 99.4 °F 60.8 °F 29% 29.86 in 10.0 mi SSE 10.4 mph 17.3 mph N/A   Clear
6:55 PM 98.1 °F 98.6 °F 61.2 °F 29% 29.86 in 10.0 mi SSE 10.4 mph 16.1 mph N/A   Clear
7:15 PM 97.2 °F 98.1 °F 61.5 °F 31% 29.86 in 10.0 mi South 9.2 mph - N/A   Clear
7:35 PM 96.6 °F 96.8 °F 60.1 °F 30% 29.85 in 10.0 mi SSE 11.5 mph 17.3 mph N/A   Clear
7:55 PM 95.7 °F 95.1 °F 59.0 °F 29% 29.85 in 10.0 mi SSE 9.2 mph 17.3 mph N/A   Clear
8:15 PM 94.5 °F 93.6 °F 58.1 °F 30% 29.85 in 10.0 mi SSE 6.9 mph - N/A   Clear
8:35 PM 92.7 °F 91.5 °F 57.7 °F 31% 29.85 in 10.0 mi SE 5.8 mph - N/A   Clear
8:55 PM 91.6 °F 90.1 °F 57.2 °F 31% 29.86 in 10.0 mi SE 5.8 mph - N/A   Clear
9:15 PM 90.5 °F 89.3 °F 57.4 °F 33% 29.86 in 10.0 mi SSE 5.8 mph - N/A   Clear
9:35 PM 89.6 °F 88.4 °F 58.1 °F 34% 29.87 in 10.0 mi SSE 5.8 mph - N/A   Clear
9:55 PM 88.7 °F 87.8 °F 58.5 °F 36% 29.88 in 10.0 mi SE 5.8 mph - N/A   Clear
10:15 PM 87.8 °F 87.1 °F 59.0 °F 38% 29.89 in 10.0 mi SSE 4.6 mph - N/A   Clear
10:35 PM 87.1 °F 86.7 °F 59.7 °F 40% 29.89 in 10.0 mi SSE 5.8 mph - N/A   Clear
10:55 PM 86.2 °F 85.9 °F 60.3 °F 41% 29.90 in 10.0 mi SSE 5.8 mph - N/A   Clear
11:15 PM 86.0 °F 86.1 °F 61.0 °F 43% 29.90 in 10.0 mi SSE 4.6 mph - N/A   Clear
11:35 PM 85.8 °F 85.9 °F 61.2 °F 43% 29.90 in 10.0 mi SSE 4.6 mph - N/A   Clear
11:55 PM 85.1 °F 85.4 °F 61.3 °F 45% 29.90 in 10.0 mi SSE 6.9 mph - N/A   Clear